createdAt,value
2018-11-26T00:00:48.156Z,29.10
2018-11-26T00:03:16.910Z,27.47
2018-11-26T00:05:45.416Z,31.47
2018-11-26T00:08:14.160Z,28.70
2018-11-26T00:10:54.198Z,28.80
2018-11-26T00:13:22.730Z,30.43
2018-11-26T00:15:51.409Z,28.70
2018-11-26T00:18:19.969Z,27.07
2018-11-26T00:20:48.587Z,28.07
2018-11-26T00:23:17.140Z,28.63
2018-11-26T00:25:45.698Z,28.13
2018-11-26T00:28:14.210Z,28.67
2018-11-26T00:30:42.852Z,28.37
2018-11-26T00:33:11.404Z,27.57
2018-11-26T00:35:39.907Z,26.70
2018-11-26T00:38:08.501Z,28.17
2018-11-26T00:40:37.026Z,26.33
2018-11-26T00:43:05.687Z,24.90
2018-11-26T00:45:34.279Z,26.23
2018-11-26T00:48:02.882Z,25.73
2018-11-26T00:50:31.407Z,25.50
2018-11-26T00:53:00.076Z,24.03
2018-11-26T00:55:28.619Z,25.23
2018-11-26T00:57:57.183Z,26.40
2018-11-26T01:00:25.734Z,24.97
2018-11-26T01:02:54.332Z,24.03
2018-11-26T01:05:40.099Z,27.10
2018-11-26T01:08:08.643Z,26.87
2018-11-26T01:10:37.203Z,26.53
2018-11-26T01:13:06.431Z,26.50
2018-11-26T01:15:34.999Z,23.80
2018-11-26T01:18:03.543Z,25.80
2018-11-26T01:20:32.088Z,24.70
2018-11-26T01:23:00.654Z,24.23
2018-11-26T01:25:29.248Z,24.90
2018-11-26T01:27:57.823Z,23.97
2018-11-26T01:30:26.358Z,26.23
2018-11-26T01:32:55.038Z,23.70
2018-11-26T01:35:23.571Z,24.73
2018-11-26T01:37:52.166Z,25.40
2018-11-26T01:40:27.593Z,23.30
2018-11-26T01:42:56.376Z,24.30
2018-11-26T01:45:24.917Z,23.33
2018-11-26T01:47:53.609Z,26.10
2018-11-26T01:50:22.194Z,23.83
2018-11-26T01:52:50.716Z,22.73
2018-11-26T01:55:19.266Z,26.13
2018-11-26T01:57:47.819Z,25.20
2018-11-26T02:00:18.646Z,24.83
2018-11-26T02:02:47.224Z,22.63
2018-11-26T02:05:15.768Z,24.33
2018-11-26T02:07:44.411Z,24.20
2018-11-26T02:10:16.192Z,24.73
2018-11-26T02:12:44.772Z,23.70
2018-11-26T02:15:50.434Z,26.00
2018-11-26T02:18:18.998Z,24.83
2018-11-26T02:20:47.592Z,24.27
2018-11-26T02:23:16.167Z,25.20
2018-11-26T02:25:44.720Z,22.47
2018-11-26T02:28:13.291Z,22.50
2018-11-26T02:30:41.867Z,22.87
2018-11-26T02:33:10.503Z,24.80
2018-11-26T02:35:39.188Z,24.70
2018-11-26T02:38:07.720Z,24.00
2018-11-26T02:40:36.269Z,24.17
2018-11-26T02:43:04.876Z,25.03
2018-11-26T02:45:33.438Z,24.63
2018-11-26T02:48:02.078Z,25.40
2018-11-26T02:50:30.572Z,22.97
2018-11-26T02:52:59.075Z,26.03
2018-11-26T02:55:27.630Z,25.57
2018-11-26T02:57:56.226Z,25.57
2018-11-26T03:00:24.812Z,24.97
2018-11-26T03:02:53.390Z,25.57
2018-11-26T03:05:28.006Z,27.60
2018-11-26T03:07:56.636Z,27.07
2018-11-26T03:10:25.476Z,27.70
2018-11-26T03:12:53.996Z,27.20
2018-11-26T03:15:22.575Z,26.27
2018-11-26T03:17:51.164Z,27.40
2018-11-26T03:20:19.749Z,25.60
2018-11-26T03:22:48.264Z,25.87
2018-11-26T03:25:16.806Z,25.97
2018-11-26T03:27:45.305Z,26.77
2018-11-26T03:30:16.362Z,28.87
2018-11-26T03:32:45.198Z,26.67
2018-11-26T03:35:13.723Z,26.70
2018-11-26T03:37:42.587Z,25.67
2018-11-26T03:40:13.094Z,26.97
2018-11-26T03:42:41.781Z,25.20
2018-11-26T03:45:17.879Z,29.33
2018-11-26T03:47:46.847Z,26.23
2018-11-26T03:50:15.543Z,24.70
2018-11-26T03:52:45.756Z,26.17
2018-11-26T03:55:14.625Z,27.30
2018-11-26T03:57:43.213Z,27.33
2018-11-26T04:00:13.042Z,26.57
2018-11-26T04:02:41.677Z,26.60
2018-11-26T04:05:10.971Z,25.70
2018-11-26T04:07:39.546Z,27.60
2018-11-26T04:10:12.079Z,28.07
2018-11-26T04:12:40.652Z,27.43
2018-11-26T04:15:10.899Z,26.87
2018-11-26T04:17:39.505Z,25.27
2018-11-26T04:20:08.663Z,24.33
2018-11-26T04:22:37.309Z,25.40
2018-11-26T04:25:07.246Z,26.07
2018-11-26T04:27:36.041Z,27.47
2018-11-26T04:30:05.365Z,28.40
2018-11-26T04:32:40.732Z,26.27
2018-11-26T04:35:09.455Z,26.90
2018-11-26T04:37:37.982Z,25.17
2018-11-26T04:40:08.681Z,26.67
2018-11-26T04:42:37.246Z,24.20
2018-11-26T04:45:07.106Z,25.97
2018-11-26T04:47:35.606Z,25.90
2018-11-26T04:50:11.314Z,25.53
2018-11-26T04:52:39.958Z,25.17
2018-11-26T04:55:09.812Z,24.10
2018-11-26T04:57:42.328Z,24.53
2018-11-26T05:00:12.858Z,25.93
2018-11-26T05:02:41.406Z,24.60
2018-11-26T05:05:11.241Z,23.00
2018-11-26T05:07:39.862Z,23.80
2018-11-26T05:10:10.736Z,25.27
2018-11-26T05:12:39.232Z,25.00
2018-11-26T05:15:10.420Z,24.30
2018-11-26T05:17:38.952Z,23.03
2018-11-26T05:20:10.572Z,24.10
2018-11-26T05:22:39.128Z,21.93
2018-11-26T05:25:09.022Z,22.90
2018-11-26T05:27:37.817Z,23.53
2018-11-26T05:30:08.594Z,23.27
2018-11-26T05:32:37.271Z,21.00
2018-11-26T05:35:07.142Z,23.77
2018-11-26T05:37:35.989Z,22.17
2018-11-26T05:40:05.034Z,22.90
2018-11-26T05:42:33.627Z,22.90
2018-11-26T05:45:02.186Z,23.37
2018-11-26T05:47:30.782Z,21.10
2018-11-26T05:49:59.355Z,21.93
2018-11-26T05:52:27.981Z,20.00
2018-11-26T05:54:56.543Z,21.10
2018-11-26T05:57:25.173Z,20.73
2018-11-26T05:59:53.743Z,19.73
2018-11-26T06:02:22.427Z,21.80
2018-11-26T06:04:50.930Z,21.67
2018-11-26T06:07:19.447Z,23.53
2018-11-26T06:09:47.992Z,20.77
2018-11-26T06:12:16.512Z,21.47
2018-11-26T06:14:45.047Z,18.60
2018-11-26T06:17:13.640Z,19.90
2018-11-26T06:19:42.176Z,18.83
2018-11-26T06:22:10.793Z,18.33
2018-11-26T06:24:39.324Z,18.43
2018-11-26T06:27:07.807Z,18.63
2018-11-26T06:29:36.384Z,18.70
2018-11-26T06:32:04.955Z,18.30
2018-11-26T06:34:33.543Z,19.10
2018-11-26T06:37:02.082Z,18.53
2018-11-26T06:39:30.771Z,18.37
2018-11-26T06:41:59.334Z,19.40
2018-11-26T06:44:27.902Z,19.63
2018-11-26T06:46:56.519Z,16.30
2018-11-26T06:49:25.097Z,16.37
2018-11-26T06:51:53.630Z,17.97
2018-11-26T06:54:22.958Z,18.50
2018-11-26T06:56:50.769Z,20.03
2018-11-26T06:59:19.321Z,18.17
2018-11-26T07:01:51.687Z,18.53
2018-11-26T07:04:19.600Z,17.30
2018-11-26T07:06:48.260Z,16.60
2018-11-26T07:09:16.923Z,17.57
2018-11-26T07:11:45.457Z,17.37
2018-11-26T07:14:14.846Z,16.80
2018-11-26T07:16:43.376Z,15.03
2018-11-26T07:19:12.033Z,16.90
2018-11-26T07:21:40.553Z,16.23
2018-11-26T07:24:09.053Z,17.77
2018-11-26T07:26:37.584Z,17.00
2018-11-26T07:29:06.223Z,14.93
2018-11-26T07:31:34.876Z,15.80
2018-11-26T07:34:03.374Z,15.60
2018-11-26T07:36:31.966Z,14.70
2018-11-26T07:39:00.470Z,16.63
2018-11-26T07:41:29.061Z,15.30
2018-11-26T07:43:57.813Z,15.97
2018-11-26T07:46:26.411Z,13.93
2018-11-26T07:48:54.979Z,16.93
2018-11-26T07:51:23.543Z,16.30
2018-11-26T07:53:52.101Z,14.93
2018-11-26T07:56:20.639Z,14.07
2018-11-26T07:58:49.190Z,15.53
2018-11-26T08:01:17.767Z,15.50
2018-11-26T08:03:46.297Z,15.00
2018-11-26T08:06:14.876Z,15.47
2018-11-26T08:08:43.585Z,14.80
2018-11-26T08:11:12.115Z,15.93
2018-11-26T08:13:40.701Z,13.97
2018-11-26T08:16:09.274Z,15.60
2018-11-26T08:18:37.839Z,16.20
2018-11-26T08:21:06.697Z,16.80
2018-11-26T08:23:35.416Z,13.80
2018-11-26T08:26:03.961Z,14.93
2018-11-26T08:28:32.491Z,16.80
2018-11-26T08:31:01.057Z,15.17
2018-11-26T08:33:29.605Z,15.50
2018-11-26T08:36:03.447Z,14.00
2018-11-26T08:38:37.160Z,14.83
2018-11-26T08:41:09.142Z,13.93
2018-11-26T08:43:42.959Z,14.87
2018-11-26T08:46:11.552Z,15.17
2018-11-26T08:48:45.148Z,14.17
2018-11-26T08:51:13.656Z,15.17
2018-11-26T08:53:42.205Z,15.20
2018-11-26T08:56:10.695Z,13.87
2018-11-26T08:58:39.491Z,14.87
2018-11-26T09:01:12.145Z,13.60
2018-11-26T09:03:45.733Z,14.27
2018-11-26T09:06:14.211Z,15.00
2018-11-26T09:08:42.857Z,13.00
2018-11-26T09:11:11.405Z,15.03
2018-11-26T09:13:39.924Z,14.17
2018-11-26T09:16:08.457Z,16.17
2018-11-26T09:18:36.943Z,14.70
2018-11-26T09:21:05.481Z,16.23
2018-11-26T09:23:34.073Z,15.83
2018-11-26T09:26:02.620Z,13.97
2018-11-26T09:28:31.168Z,14.87
2018-11-26T09:30:59.756Z,10.90
2018-11-26T09:33:28.263Z,15.00
2018-11-26T09:35:56.793Z,15.03
2018-11-26T09:38:25.300Z,13.90
2018-11-26T09:40:53.995Z,14.30
2018-11-26T09:43:22.632Z,14.77
2018-11-26T09:45:51.178Z,15.83
2018-11-26T09:48:19.730Z,14.03
2018-11-26T09:50:48.252Z,15.83
2018-11-26T09:53:16.825Z,15.80
2018-11-26T09:55:45.948Z,17.30
2018-11-26T09:58:14.490Z,16.10
2018-11-26T10:00:42.995Z,17.40
2018-11-26T10:03:11.658Z,14.17
2018-11-26T10:05:40.205Z,14.93
2018-11-26T10:08:08.746Z,15.73
2018-11-26T10:10:37.394Z,14.10
2018-11-26T10:13:06.687Z,14.77
2018-11-26T10:15:35.212Z,15.50
2018-11-26T10:18:03.745Z,13.97
2018-11-26T10:20:32.403Z,15.47
2018-11-26T10:23:00.945Z,14.97
2018-11-26T10:25:29.487Z,17.37
2018-11-26T10:27:58.063Z,15.70
2018-11-26T10:30:26.568Z,16.40
2018-11-26T10:32:55.095Z,16.83
2018-11-26T10:35:23.605Z,15.90
2018-11-26T10:37:52.202Z,16.10
2018-11-26T10:40:25.562Z,16.90
2018-11-26T10:42:54.199Z,14.50
2018-11-26T10:45:23.935Z,15.80
2018-11-26T10:47:52.485Z,16.37
2018-11-26T10:50:22.723Z,16.17
2018-11-26T10:52:59.031Z,16.17
2018-11-26T10:55:33.236Z,16.50
2018-11-26T10:58:01.961Z,15.50
2018-11-26T11:00:35.840Z,14.97
2018-11-26T11:03:04.812Z,14.53
2018-11-26T11:05:33.417Z,16.93
2018-11-26T11:08:02.013Z,16.07
2018-11-26T11:10:31.808Z,14.33
2018-11-26T11:13:00.388Z,14.60
2018-11-26T11:15:28.976Z,17.40
2018-11-26T11:17:57.548Z,14.87
2018-11-26T11:20:28.485Z,15.13
2018-11-26T11:22:57.116Z,14.70
2018-11-26T11:25:26.200Z,14.97
2018-11-26T11:27:54.340Z,16.10
2018-11-26T11:30:27.701Z,17.23
2018-11-26T11:32:56.269Z,17.00
2018-11-26T11:35:25.040Z,15.17
2018-11-26T11:37:54.322Z,14.23
2018-11-26T11:40:26.038Z,14.23
2018-11-26T11:42:54.797Z,14.90
2018-11-26T11:45:23.926Z,14.20
2018-11-26T11:47:52.478Z,13.83
2018-11-26T11:50:21.589Z,15.33
2018-11-26T11:52:50.498Z,14.00
2018-11-26T11:55:21.130Z,12.50
2018-11-26T11:57:49.705Z,14.23
2018-11-26T12:00:39.970Z,13.50
2018-11-26T12:03:12.196Z,15.53
2018-11-26T12:05:40.818Z,12.67
2018-11-26T12:08:09.964Z,15.47
2018-11-26T12:10:38.490Z,14.03
2018-11-26T12:13:09.668Z,14.33
2018-11-26T12:15:39.939Z,13.10
2018-11-26T12:18:08.961Z,13.77
2018-11-26T12:20:37.545Z,14.37
2018-11-26T12:23:06.115Z,12.97
2018-11-26T12:25:34.645Z,13.20
2018-11-26T12:28:03.246Z,11.87
2018-11-26T12:30:33.903Z,13.13
2018-11-26T12:33:02.578Z,11.27
2018-11-26T12:35:31.085Z,11.40
2018-11-26T12:37:59.612Z,10.27
2018-11-26T12:40:28.514Z,9.83
2018-11-26T12:42:58.327Z,8.10
2018-11-26T12:45:27.956Z,11.10
2018-11-26T12:47:56.919Z,11.00
2018-11-26T12:50:25.697Z,10.77
2018-11-26T12:52:54.220Z,10.63
2018-11-26T12:55:23.531Z,11.40
2018-11-26T12:57:52.838Z,13.07
2018-11-26T13:00:22.442Z,10.60
2018-11-26T13:02:52.317Z,11.03
2018-11-26T13:05:21.108Z,10.30
2018-11-26T13:07:49.769Z,10.47
2018-11-26T13:10:20.169Z,11.03
2018-11-26T13:12:49.326Z,10.53
2018-11-26T13:15:19.795Z,9.23
2018-11-26T13:17:48.382Z,10.20
2018-11-26T13:20:19.433Z,10.40
2018-11-26T13:22:48.055Z,9.77
2018-11-26T13:25:17.805Z,10.20
2018-11-26T13:27:47.752Z,10.80
2018-11-26T13:30:21.225Z,9.10
2018-11-26T13:32:51.159Z,11.00
2018-11-26T13:35:20.162Z,10.30
2018-11-26T13:37:48.957Z,10.33
2018-11-26T13:40:18.202Z,9.77
2018-11-26T13:42:46.995Z,10.87
2018-11-26T13:45:21.078Z,11.20
2018-11-26T13:47:49.700Z,10.80
2018-11-26T13:50:23.050Z,11.10
2018-11-26T13:52:51.252Z,10.60
2018-11-26T13:55:19.830Z,11.57
2018-11-26T13:57:48.403Z,11.03
2018-11-26T14:00:17.734Z,11.60
2018-11-26T14:02:46.271Z,9.93
2018-11-26T14:05:15.947Z,11.90
2018-11-26T14:07:45.308Z,10.30
2018-11-26T14:10:23.681Z,10.93
2018-11-26T14:12:54.711Z,11.17
2018-11-26T14:15:23.495Z,10.90
2018-11-26T14:17:52.039Z,10.53
2018-11-26T14:20:20.602Z,10.10
2018-11-26T14:22:49.185Z,11.83
2018-11-26T14:25:18.700Z,11.10
2018-11-26T14:27:47.812Z,11.10
2018-11-26T14:30:22.718Z,11.47
2018-11-26T14:32:51.205Z,11.23
2018-11-26T14:35:19.886Z,11.90
2018-11-26T14:37:50.598Z,11.83
2018-11-26T14:40:27.299Z,15.70
2018-11-26T14:42:55.894Z,16.27
2018-11-26T14:45:24.439Z,15.83
2018-11-26T14:47:53.021Z,18.53
2018-11-26T14:50:21.574Z,13.17
2018-11-26T14:52:50.693Z,14.70
2018-11-26T14:55:21.712Z,14.20
2018-11-26T14:57:56.796Z,13.10
2018-11-26T15:00:25.301Z,11.50
2018-11-26T15:02:53.849Z,11.67
2018-11-26T15:05:22.462Z,10.80
2018-11-26T15:07:51.033Z,11.37
2018-11-26T15:10:20.802Z,9.90
2018-11-26T15:12:49.395Z,10.30
2018-11-26T15:15:19.265Z,11.67
2018-11-26T15:17:47.861Z,10.67
2018-11-26T15:20:20.366Z,11.60
2018-11-26T15:22:49.234Z,10.00
2018-11-26T15:25:21.097Z,11.67
2018-11-26T15:27:49.844Z,12.67
2018-11-26T15:30:19.490Z,12.03
2018-11-26T15:32:48.069Z,11.60
2018-11-26T15:35:18.315Z,11.23
2018-11-26T15:37:47.220Z,11.83
2018-11-26T15:40:16.728Z,10.40
2018-11-26T15:42:45.320Z,11.47
2018-11-26T15:45:19.263Z,11.60
2018-11-26T15:47:47.978Z,9.60
2018-11-26T15:50:16.498Z,10.37
2018-11-26T15:52:45.105Z,10.60
2018-11-26T15:55:14.975Z,11.03
2018-11-26T15:57:43.577Z,10.47
2018-11-26T16:00:24.176Z,9.37
2018-11-26T16:02:53.083Z,10.40
2018-11-26T16:05:22.840Z,10.60
2018-11-26T16:07:51.657Z,10.23
2018-11-26T16:10:20.218Z,10.70
2018-11-26T16:12:50.406Z,10.37
2018-11-26T16:15:20.468Z,10.20
2018-11-26T16:17:49.162Z,10.70
2018-11-26T16:20:20.374Z,10.83
2018-11-26T16:22:49.539Z,10.33
2018-11-26T16:25:19.571Z,11.43
2018-11-26T16:27:48.204Z,10.77
2018-11-26T16:30:17.639Z,9.87
2018-11-26T16:32:49.676Z,10.50
2018-11-26T16:35:19.796Z,9.53
2018-11-26T16:37:48.325Z,9.97
2018-11-26T16:40:17.914Z,10.53
2018-11-26T16:42:46.770Z,9.60
2018-11-26T16:45:17.731Z,9.97
2018-11-26T16:47:47.504Z,11.60
2018-11-26T16:50:17.012Z,11.00
2018-11-26T16:52:45.939Z,9.57
2018-11-26T16:55:15.793Z,9.80
2018-11-26T16:57:44.486Z,9.17
2018-11-26T17:00:28.089Z,9.97
2018-11-26T17:02:58.775Z,9.57
2018-11-26T17:05:33.060Z,9.60
2018-11-26T17:08:01.791Z,10.17
2018-11-26T17:10:30.325Z,10.10
2018-11-26T17:12:58.942Z,9.97
2018-11-26T17:15:27.499Z,10.77
2018-11-26T17:17:56.052Z,10.33
2018-11-26T17:20:24.605Z,9.67
2018-11-26T17:22:53.228Z,9.50
2018-11-26T17:25:21.814Z,7.77
2018-11-26T17:27:50.320Z,8.87
2018-11-26T17:31:26.661Z,8.07
2018-11-26T17:33:55.197Z,8.40
2018-11-26T17:36:23.799Z,9.03
2018-11-26T17:38:52.392Z,7.93
2018-11-26T17:41:21.085Z,8.00
2018-11-26T17:43:49.885Z,7.83
2018-11-26T17:46:18.394Z,8.30
2018-11-26T17:48:47.392Z,8.20
2018-11-26T17:51:16.027Z,7.67
2018-11-26T17:53:44.586Z,8.40
2018-11-26T17:56:13.161Z,9.00
2018-11-26T17:58:41.737Z,9.03
2018-11-26T18:01:14.861Z,9.77
2018-11-26T18:03:43.385Z,9.57
2018-11-26T18:06:11.921Z,8.07
2018-11-26T18:08:40.482Z,6.50
2018-11-26T18:11:09.369Z,7.30
2018-11-26T18:13:37.995Z,6.13
2018-11-26T18:16:06.924Z,6.30
2018-11-26T18:18:35.474Z,6.17
2018-11-26T18:21:04.087Z,5.60
2018-11-26T18:23:32.701Z,6.27
2018-11-26T18:26:01.270Z,5.87
2018-11-26T18:28:29.802Z,7.10
2018-11-26T18:30:58.369Z,9.40
2018-11-26T18:33:27.006Z,7.33
2018-11-26T18:35:55.530Z,7.10
2018-11-26T18:38:24.073Z,6.60
2018-11-26T18:40:52.871Z,6.53
2018-11-26T18:43:21.391Z,6.40
2018-11-26T18:45:50.071Z,7.83
2018-11-26T18:48:18.659Z,6.37
2018-11-26T18:50:47.296Z,7.60
2018-11-26T18:53:15.951Z,6.30
2018-11-26T18:55:44.480Z,7.63
2018-11-26T18:58:13.063Z,7.23
2018-11-26T19:00:46.722Z,6.50
2018-11-26T19:03:18.878Z,6.20
2018-11-26T19:05:48.230Z,5.93
2018-11-26T19:08:16.790Z,6.10
2018-11-26T19:10:45.479Z,6.80
2018-11-26T19:13:17.946Z,7.37
2018-11-26T19:15:47.899Z,5.60
2018-11-26T19:18:21.033Z,5.90
2018-11-26T19:20:49.681Z,6.27
2018-11-26T19:23:18.326Z,5.50
2018-11-26T19:25:47.937Z,6.17
2018-11-26T19:28:20.407Z,5.90
2018-11-26T19:30:45.097Z,6.90
2018-11-26T19:33:13.703Z,7.00
2018-11-26T19:35:42.412Z,6.27
2018-11-26T19:38:11.177Z,6.20
2018-11-26T19:40:40.618Z,6.13
2018-11-26T19:43:09.845Z,5.80
2018-11-26T19:45:38.638Z,6.30
2018-11-26T19:48:07.981Z,5.67
2018-11-26T19:50:36.628Z,5.80
2018-11-26T19:53:06.884Z,6.47
2018-11-26T19:55:35.431Z,5.80
2018-11-26T19:58:04.064Z,5.43
2018-11-26T20:00:32.581Z,5.80
2018-11-26T20:03:08.533Z,5.50
2018-11-26T20:06:46.324Z,4.80
2018-11-26T20:09:15.425Z,5.97
2018-11-26T20:11:44.032Z,5.80
2018-11-26T20:14:12.557Z,5.40
2018-11-26T20:16:43.669Z,6.20
2018-11-26T20:19:12.166Z,6.20
2018-11-26T20:21:40.762Z,5.33
2018-11-26T20:24:09.381Z,5.00
2018-11-26T20:26:37.960Z,4.90
2018-11-26T20:29:07.542Z,5.13
2018-11-26T20:31:36.173Z,5.73
2018-11-26T20:34:04.861Z,5.30
2018-11-26T20:36:33.562Z,5.27
2018-11-26T20:39:02.144Z,5.80
2018-11-26T20:41:30.676Z,4.93
2018-11-26T20:43:59.230Z,5.13
2018-11-26T20:46:27.825Z,5.80
2018-11-26T20:48:56.405Z,4.80
2018-11-26T20:51:24.974Z,5.40
2018-11-26T20:53:53.554Z,5.27
2018-11-26T20:56:22.149Z,5.87
2018-11-26T20:58:50.686Z,4.20
2018-11-26T21:01:19.338Z,4.80
2018-11-26T21:03:50.883Z,5.30
2018-11-26T21:06:19.508Z,5.33
2018-11-26T21:08:48.121Z,4.83
2018-11-26T21:11:16.665Z,5.10
2018-11-26T21:13:45.370Z,5.13
2018-11-26T21:16:13.977Z,5.40
2018-11-26T21:18:42.576Z,4.70
2018-11-26T21:21:11.160Z,4.90
2018-11-26T21:23:39.774Z,5.73
2018-11-26T21:26:09.390Z,6.20
2018-11-26T21:28:38.336Z,5.33
2018-11-26T21:31:11.118Z,6.43
2018-11-26T21:33:43.670Z,6.47
2018-11-26T21:36:16.269Z,8.73
2018-11-26T21:38:45.166Z,7.57
2018-11-26T21:41:18.246Z,7.40
2018-11-26T21:43:50.146Z,6.30
2018-11-26T21:46:23.147Z,7.17
2018-11-26T21:48:55.866Z,6.37
2018-11-26T21:51:25.029Z,6.10
2018-11-26T21:53:54.703Z,5.73
2018-11-26T21:56:23.328Z,7.23
2018-11-26T21:58:51.892Z,6.57
2018-11-26T22:01:20.508Z,6.57
2018-11-26T22:03:49.153Z,8.50
2018-11-26T22:06:17.700Z,6.50
2018-11-26T22:08:46.408Z,6.33
2018-11-26T22:11:15.010Z,5.23
2018-11-26T22:13:43.620Z,6.50
2018-11-26T22:16:12.272Z,5.60
2018-11-26T22:18:41.025Z,4.60
2018-11-26T22:21:13.401Z,5.70
2018-11-26T22:23:48.728Z,5.23
2018-11-26T22:26:17.450Z,4.53
2018-11-26T22:28:46.030Z,5.03
2018-11-26T22:31:14.656Z,4.10
2018-11-26T22:33:43.216Z,6.23
2018-11-26T22:36:11.864Z,6.40
2018-11-26T22:38:40.485Z,5.07
2018-11-26T22:41:09.047Z,5.70
2018-11-26T22:43:37.701Z,4.43
2018-11-26T22:46:06.424Z,5.40
2018-11-26T22:48:35.012Z,5.07
2018-11-26T22:51:03.716Z,5.20
2018-11-26T22:53:32.219Z,5.93
2018-11-26T22:56:00.805Z,4.50
2018-11-26T22:58:29.471Z,5.40
2018-11-26T23:00:58.029Z,4.83
2018-11-26T23:03:27.225Z,4.97
2018-11-26T23:05:55.971Z,4.90
2018-11-26T23:08:24.924Z,5.10
2018-11-26T23:10:53.563Z,5.17
2018-11-26T23:13:22.140Z,6.13
2018-11-26T23:15:50.726Z,5.90
2018-11-26T23:18:19.287Z,5.33
2018-11-26T23:20:47.860Z,5.77
2018-11-26T23:23:16.471Z,5.37
2018-11-26T23:25:45.045Z,6.10
2018-11-26T23:28:13.619Z,4.80
2018-11-26T23:30:42.181Z,5.70
2018-11-26T23:33:10.719Z,6.23
2018-11-26T23:35:39.266Z,5.67
2018-11-26T23:38:07.922Z,5.43
2018-11-26T23:40:36.588Z,5.33
2018-11-26T23:43:05.130Z,4.87
2018-11-26T23:45:33.628Z,5.20
2018-11-26T23:48:02.342Z,5.60
2018-11-26T23:50:31.094Z,6.10
2018-11-26T23:52:59.677Z,6.10
2018-11-26T23:55:28.164Z,6.03
2018-11-26T23:57:56.780Z,5.90
